sensor_id;sensor_type;location;lat;lon;timestamp;temperature;humidity
53146;DHT22;39042;53.150;5.898;2023-04-25T03:20:55;5.30;99.90
53146;DHT22;39042;53.150;5.898;2023-04-25T03:23:21;5.40;99.90
53146;DHT22;39042;53.150;5.898;2023-04-25T03:25:47;5.40;99.90
53146;DHT22;39042;53.150;5.898;2023-04-25T03:28:13;5.40;99.90
53146;DHT22;39042;53.150;5.898;2023-04-25T03:30:39;5.50;99.90
53146;DHT22;39042;53.150;5.898;2023-04-25T03:33:05;5.50;99.90
53146;DHT22;39042;53.150;5.898;2023-04-25T03:35:31;5.50;99.90
53146;DHT22;39042;53.150;5.898;2023-04-25T03:37:57;5.50;99.90
53146;DHT22;39042;53.150;5.898;2023-04-25T03:40:28;5.60;99.90
53146;DHT22;39042;53.150;5.898;2023-04-25T03:43:17;5.60;99.90
53146;DHT22;39042;53.150;5.898;2023-04-25T03:45:49;5.60;99.90
53146;DHT22;39042;53.150;5.898;2023-04-25T03:48:18;5.70;99.90
53146;DHT22;39042;53.150;5.898;2023-04-25T03:50:47;5.70;99.90
53146;DHT22;39042;53.150;5.898;2023-04-25T03:53:13;5.80;99.90
53146;DHT22;39042;53.150;5.898;2023-04-25T03:56:01;5.80;99.90
53146;DHT22;39042;53.150;5.898;2023-04-25T03:58:31;5.80;99.90
53146;DHT22;39042;53.150;5.898;2023-04-25T04:00:57;5.80;99.90
53146;DHT22;39042;53.150;5.898;2023-04-25T04:03:23;5.80;99.90
53146;DHT22;39042;53.150;5.898;2023-04-25T04:05:49;5.70;99.90
53146;DHT22;39042;53.150;5.898;2023-04-25T04:08:16;5.70;99.90
53146;DHT22;39042;53.150;5.898;2023-04-25T04:10:42;5.60;99.90
53146;DHT22;39042;53.150;5.898;2023-04-25T04:13:08;5.50;99.90
53146;DHT22;39042;53.150;5.898;2023-04-25T04:15:34;5.40;99.90
53146;DHT22;39042;53.150;5.898;2023-04-25T04:18:00;5.30;99.90
53146;DHT22;39042;53.150;5.898;2023-04-25T04:20:29;5.20;99.90
53146;DHT22;39042;53.150;5.898;2023-04-25T04:22:58;5.20;99.90
53146;DHT22;39042;53.150;5.898;2023-04-25T04:25:24;5.10;99.90
53146;DHT22;39042;53.150;5.898;2023-04-25T04:28:11;5.10;99.90
53146;DHT22;39042;53.150;5.898;2023-04-25T04:30:58;5.20;99.90
53146;DHT22;39042;53.150;5.898;2023-04-25T04:33:26;5.30;99.90
53146;DHT22;39042;53.150;5.898;2023-04-25T04:35:58;5.40;99.90
53146;DHT22;39042;53.150;5.898;2023-04-25T04:38:24;5.40;99.90
53146;DHT22;39042;53.150;5.898;2023-04-25T04:40:52;5.50;99.90
53146;DHT22;39042;53.150;5.898;2023-04-25T04:43:34;5.50;99.90
53146;DHT22;39042;53.150;5.898;2023-04-25T04:46:18;5.60;99.90
53146;DHT22;39042;53.150;5.898;2023-04-25T04:48:56;5.60;99.90
53146;DHT22;39042;53.150;5.898;2023-04-25T04:51:40;5.60;99.90
53146;DHT22;39042;53.150;5.898;2023-04-25T04:54:25;5.60;99.90
53146;DHT22;39042;53.150;5.898;2023-04-25T04:57:08;5.60;99.90
53146;DHT22;39042;53.150;5.898;2023-04-25T05:00:09;5.70;99.90
53146;DHT22;39042;53.150;5.898;2023-04-25T05:03:05;5.70;99.90
53146;DHT22;39042;53.150;5.898;2023-04-25T05:06:06;5.70;99.90
53146;DHT22;39042;53.150;5.898;2023-04-25T05:09:07;5.70;99.90
53146;DHT22;39042;53.150;5.898;2023-04-25T05:11:43;5.70;99.90
53146;DHT22;39042;53.150;5.898;2023-04-25T05:14:32;5.70;99.90
53146;DHT22;39042;53.150;5.898;2023-04-25T05:17:16;5.80;99.90
53146;DHT22;39042;53.150;5.898;2023-04-25T05:20:15;5.80;99.90
53146;DHT22;39042;53.150;5.898;2023-04-25T05:23:03;5.80;99.90
53146;DHT22;39042;53.150;5.898;2023-04-25T05:25:55;5.90;99.90
53146;DHT22;39042;53.150;5.898;2023-04-25T05:28:57;5.80;99.90
53146;DHT22;39042;53.150;5.898;2023-04-25T05:31:36;5.70;99.90
53146;DHT22;39042;53.150;5.898;2023-04-25T05:34:08;5.70;99.90
53146;DHT22;39042;53.150;5.898;2023-04-25T05:36:56;5.70;99.90
53146;DHT22;39042;53.150;5.898;2023-04-25T05:39:32;5.80;99.90
53146;DHT22;39042;53.150;5.898;2023-04-25T05:42:30;5.90;99.90
53146;DHT22;39042;53.150;5.898;2023-04-25T05:45:19;6.10;99.90
53146;DHT22;39042;53.150;5.898;2023-04-25T05:48:18;6.20;99.90
53146;DHT22;39042;53.150;5.898;2023-04-25T05:51:09;6.30;99.90
53146;DHT22;39042;53.150;5.898;2023-04-25T05:54:01;6.30;99.90
53146;DHT22;39042;53.150;5.898;2023-04-25T05:56:37;6.30;99.90
53146;DHT22;39042;53.150;5.898;2023-04-25T05:59:03;6.30;99.90
53146;DHT22;39042;53.150;5.898;2023-04-25T06:01:29;6.20;99.90
53146;DHT22;39042;53.150;5.898;2023-04-25T06:03:54;6.10;99.90
53146;DHT22;39042;53.150;5.898;2023-04-25T06:06:20;6.10;99.90
53146;DHT22;39042;53.150;5.898;2023-04-25T06:08:46;6.00;99.90
53146;DHT22;39042;53.150;5.898;2023-04-25T06:11:12;6.00;99.90
53146;DHT22;39042;53.150;5.898;2023-04-25T06:13:38;6.00;99.90
53146;DHT22;39042;53.150;5.898;2023-04-25T06:16:04;5.90;99.90
53146;DHT22;39042;53.150;5.898;2023-04-25T06:18:30;5.90;99.90
53146;DHT22;39042;53.150;5.898;2023-04-25T06:20:57;5.90;99.90
53146;DHT22;39042;53.150;5.898;2023-04-25T06:23:23;5.90;99.90
53146;DHT22;39042;53.150;5.898;2023-04-25T06:25:58;5.90;99.90
53146;DHT22;39042;53.150;5.898;2023-04-25T06:28:25;5.90;99.90
53146;DHT22;39042;53.150;5.898;2023-04-25T06:30:51;5.90;99.90
53146;DHT22;39042;53.150;5.898;2023-04-25T06:33:18;6.00;99.90
53146;DHT22;39042;53.150;5.898;2023-04-25T06:35:46;6.00;99.90
53146;DHT22;39042;53.150;5.898;2023-04-25T06:38:15;6.00;99.90
53146;DHT22;39042;53.150;5.898;2023-04-25T06:40:45;6.10;99.90
53146;DHT22;39042;53.150;5.898;2023-04-25T06:43:10;6.20;99.90
53146;DHT22;39042;53.150;5.898;2023-04-25T06:45:58;6.30;99.90
53146;DHT22;39042;53.150;5.898;2023-04-25T06:48:28;6.40;99.90
53146;DHT22;39042;53.150;5.898;2023-04-25T06:50:54;6.60;99.90
53146;DHT22;39042;53.150;5.898;2023-04-25T06:53:20;6.70;99.90
53146;DHT22;39042;53.150;5.898;2023-04-25T06:55:50;6.70;99.90
53146;DHT22;39042;53.150;5.898;2023-04-25T06:58:19;6.70;99.90
53146;DHT22;39042;53.150;5.898;2023-04-25T07:01:05;6.80;99.90
53146;DHT22;39042;53.150;5.898;2023-04-25T07:03:31;6.70;99.90
53146;DHT22;39042;53.150;5.898;2023-04-25T07:06:00;6.70;99.90
53146;DHT22;39042;53.150;5.898;2023-04-25T07:08:29;6.60;99.90
53146;DHT22;39042;53.150;5.898;2023-04-25T07:10:56;6.60;99.90
53146;DHT22;39042;53.150;5.898;2023-04-25T07:13:22;6.60;99.90
53146;DHT22;39042;53.150;5.898;2023-04-25T07:15:48;6.80;99.90
53146;DHT22;39042;53.150;5.898;2023-04-25T07:18:15;6.90;99.90
53146;DHT22;39042;53.150;5.898;2023-04-25T07:20:41;7.10;99.90
53146;DHT22;39042;53.150;5.898;2023-04-25T07:23:07;7.30;99.90
53146;DHT22;39042;53.150;5.898;2023-04-25T07:25:33;7.40;99.90
53146;DHT22;39042;53.150;5.898;2023-04-25T07:27:59;7.50;99.90
53146;DHT22;39042;53.150;5.898;2023-04-25T07:30:26;7.60;99.90
53146;DHT22;39042;53.150;5.898;2023-04-25T07:32:52;7.70;99.90
53146;DHT22;39042;53.150;5.898;2023-04-25T07:35:17;7.70;99.90
53146;DHT22;39042;53.150;5.898;2023-04-25T07:37:43;7.70;99.90
53146;DHT22;39042;53.150;5.898;2023-04-25T07:40:12;7.60;99.90
53146;DHT22;39042;53.150;5.898;2023-04-25T07:42:44;7.60;99.90
53146;DHT22;39042;53.150;5.898;2023-04-25T07:45:12;7.60;99.90
53146;DHT22;39042;53.150;5.898;2023-04-25T07:47:39;7.60;99.90
53146;DHT22;39042;53.150;5.898;2023-04-25T07:50:06;7.70;99.90
53146;DHT22;39042;53.150;5.898;2023-04-25T07:52:32;7.90;99.90
53146;DHT22;39042;53.150;5.898;2023-04-25T07:55:11;8.10;99.90
53146;DHT22;39042;53.150;5.898;2023-04-25T07:57:49;8.20;99.90
53146;DHT22;39042;53.150;5.898;2023-04-25T08:00:15;8.30;99.90
53146;DHT22;39042;53.150;5.898;2023-04-25T08:02:47;8.20;99.90
53146;DHT22;39042;53.150;5.898;2023-04-25T08:05:16;8.20;99.90
53146;DHT22;39042;53.150;5.898;2023-04-25T08:07:45;8.20;99.90
53146;DHT22;39042;53.150;5.898;2023-04-25T08:10:11;8.30;99.90
53146;DHT22;39042;53.150;5.898;2023-04-25T08:12:37;8.40;99.90
53146;DHT22;39042;53.150;5.898;2023-04-25T08:15:04;8.50;99.90
53146;DHT22;39042;53.150;5.898;2023-04-25T08:17:34;8.50;99.90
53146;DHT22;39042;53.150;5.898;2023-04-25T08:20:03;8.60;99.90
53146;DHT22;39042;53.150;5.898;2023-04-25T08:22:31;8.70;99.90
53146;DHT22;39042;53.150;5.898;2023-04-25T08:25:16;8.70;99.90
53146;DHT22;39042;53.150;5.898;2023-04-25T08:27:43;8.70;99.90
53146;DHT22;39042;53.150;5.898;2023-04-25T08:30:09;8.70;99.90
53146;DHT22;39042;53.150;5.898;2023-04-25T08:32:36;8.50;99.90
53146;DHT22;39042;53.150;5.898;2023-04-25T08:35:23;8.40;99.90
53146;DHT22;39042;53.150;5.898;2023-04-25T08:37:50;8.40;99.90
53146;DHT22;39042;53.150;5.898;2023-04-25T08:40:16;8.40;99.90
53146;DHT22;39042;53.150;5.898;2023-04-25T08:42:53;8.50;99.90
53146;DHT22;39042;53.150;5.898;2023-04-25T08:45:20;8.70;99.90
53146;DHT22;39042;53.150;5.898;2023-04-25T08:47:47;8.70;99.90
53146;DHT22;39042;53.150;5.898;2023-04-25T08:50:14;8.60;99.90
53146;DHT22;39042;53.150;5.898;2023-04-25T08:52:44;8.30;99.90
53146;DHT22;39042;53.150;5.898;2023-04-25T08:55:12;8.10;99.90
53146;DHT22;39042;53.150;5.898;2023-04-25T08:57:40;7.90;99.90
53146;DHT22;39042;53.150;5.898;2023-04-25T09:00:09;7.90;99.90
53146;DHT22;39042;53.150;5.898;2023-04-25T09:02:42;8.00;99.90
53146;DHT22;39042;53.150;5.898;2023-04-25T09:05:09;8.00;99.90
53146;DHT22;39042;53.150;5.898;2023-04-25T09:07:37;8.00;99.90
53146;DHT22;39042;53.150;5.898;2023-04-25T09:10:04;8.10;99.90
53146;DHT22;39042;53.150;5.898;2023-04-25T09:12:35;8.10;99.90
53146;DHT22;39042;53.150;5.898;2023-04-25T09:15:07;8.20;99.90
53146;DHT22;39042;53.150;5.898;2023-04-25T09:17:57;8.40;99.90
53146;DHT22;39042;53.150;5.898;2023-04-25T09:20:24;8.60;99.90
53146;DHT22;39042;53.150;5.898;2023-04-25T09:23:04;8.70;99.90
53146;DHT22;39042;53.150;5.898;2023-04-25T09:25:36;8.50;99.90
53146;DHT22;39042;53.150;5.898;2023-04-25T09:28:06;8.40;99.90
53146;DHT22;39042;53.150;5.898;2023-04-25T09:30:34;8.30;99.90
53146;DHT22;39042;53.150;5.898;2023-04-25T09:33:31;8.30;99.90
53146;DHT22;39042;53.150;5.898;2023-04-25T09:36:04;8.10;99.90
53146;DHT22;39042;53.150;5.898;2023-04-25T09:38:53;8.10;99.90
53146;DHT22;39042;53.150;5.898;2023-04-25T09:41:27;8.10;99.90
53146;DHT22;39042;53.150;5.898;2023-04-25T09:43:58;8.20;99.90
53146;DHT22;39042;53.150;5.898;2023-04-25T09:46:49;8.20;99.90
53146;DHT22;39042;53.150;5.898;2023-04-25T09:49:20;8.20;99.90
53146;DHT22;39042;53.150;5.898;2023-04-25T09:51:59;8.10;99.90
53146;DHT22;39042;53.150;5.898;2023-04-25T09:54:49;8.20;99.90
53146;DHT22;39042;53.150;5.898;2023-04-25T09:57:24;8.30;99.90
53146;DHT22;39042;53.150;5.898;2023-04-25T09:59:55;8.50;99.90
53146;DHT22;39042;53.150;5.898;2023-04-25T10:02:24;8.60;99.90
53146;DHT22;39042;53.150;5.898;2023-04-25T10:04:55;8.60;99.90
53146;DHT22;39042;53.150;5.898;2023-04-25T10:07:26;8.70;99.90
53146;DHT22;39042;53.150;5.898;2023-04-25T10:10:01;8.70;99.90
53146;DHT22;39042;53.150;5.898;2023-04-25T10:12:29;8.80;99.90
53146;DHT22;39042;53.150;5.898;2023-04-25T10:14:57;8.80;99.90
53146;DHT22;39042;53.150;5.898;2023-04-25T10:17:24;8.90;99.90
53146;DHT22;39042;53.150;5.898;2023-04-25T10:19:51;8.90;99.90
53146;DHT22;39042;53.150;5.898;2023-04-25T10:22:23;8.90;99.90
53146;DHT22;39042;53.150;5.898;2023-04-25T10:24:51;8.90;99.90
53146;DHT22;39042;53.150;5.898;2023-04-25T10:27:18;8.90;99.90
53146;DHT22;39042;53.150;5.898;2023-04-25T10:29:44;8.80;99.90
53146;DHT22;39042;53.150;5.898;2023-04-25T10:32:10;8.80;99.90
53146;DHT22;39042;53.150;5.898;2023-04-25T10:34:45;8.80;99.90
53146;DHT22;39042;53.150;5.898;2023-04-25T10:37:14;9.00;99.90
53146;DHT22;39042;53.150;5.898;2023-04-25T10:39:41;9.20;99.90
53146;DHT22;39042;53.150;5.898;2023-04-25T10:42:08;9.40;99.90
53146;DHT22;39042;53.150;5.898;2023-04-25T10:44:34;9.20;99.90
53146;DHT22;39042;53.150;5.898;2023-04-25T10:47:02;8.70;99.90
53146;DHT22;39042;53.150;5.898;2023-04-25T10:49:40;8.30;99.90
53146;DHT22;39042;53.150;5.898;2023-04-25T10:52:24;8.10;99.90
53146;DHT22;39042;53.150;5.898;2023-04-25T10:54:55;8.00;99.90
53146;DHT22;39042;53.150;5.898;2023-04-25T10:57:38;8.00;99.90
53146;DHT22;39042;53.150;5.898;2023-04-25T11:02:30;7.60;99.90
53146;DHT22;39042;53.150;5.898;2023-04-25T11:04:57;7.40;99.90
53146;DHT22;39042;53.150;5.898;2023-04-25T11:07:44;7.50;99.90
53146;DHT22;39042;53.150;5.898;2023-04-25T11:10:14;7.70;99.90
53146;DHT22;39042;53.150;5.898;2023-04-25T11:12:39;7.90;99.90
53146;DHT22;39042;53.150;5.898;2023-04-25T11:15:06;8.10;99.90
53146;DHT22;39042;53.150;5.898;2023-04-25T11:17:33;8.30;99.90
53146;DHT22;39042;53.150;5.898;2023-04-25T11:19:59;8.30;99.90
53146;DHT22;39042;53.150;5.898;2023-04-25T11:22:27;8.40;99.90
53146;DHT22;39042;53.150;5.898;2023-04-25T11:24:53;8.60;99.90
53146;DHT22;39042;53.150;5.898;2023-04-25T11:27:19;8.70;99.90
53146;DHT22;39042;53.150;5.898;2023-04-25T11:29:46;8.90;99.90
53146;DHT22;39042;53.150;5.898;2023-04-25T11:32:16;8.90;99.90
53146;DHT22;39042;53.150;5.898;2023-04-25T11:34:43;8.80;99.90
53146;DHT22;39042;53.150;5.898;2023-04-25T11:37:10;8.70;99.90
53146;DHT22;39042;53.150;5.898;2023-04-25T11:39:37;8.40;99.90
53146;DHT22;39042;53.150;5.898;2023-04-25T11:42:04;8.30;99.90
53146;DHT22;39042;53.150;5.898;2023-04-25T11:44:31;8.10;99.90
53146;DHT22;39042;53.150;5.898;2023-04-25T11:46:57;8.00;99.90
53146;DHT22;39042;53.150;5.898;2023-04-25T11:49:23;8.00;99.90
53146;DHT22;39042;53.150;5.898;2023-04-25T11:51:50;8.10;99.90
53146;DHT22;39042;53.150;5.898;2023-04-25T11:54:16;8.10;99.90
53146;DHT22;39042;53.150;5.898;2023-04-25T11:56:43;8.10;99.90
53146;DHT22;39042;53.150;5.898;2023-04-25T11:59:09;8.00;99.90
53146;DHT22;39042;53.150;5.898;2023-04-25T12:01:38;8.00;99.90
53146;DHT22;39042;53.150;5.898;2023-04-25T12:04:12;8.00;99.90
53146;DHT22;39042;53.150;5.898;2023-04-25T12:06:40;8.00;99.90
53146;DHT22;39042;53.150;5.898;2023-04-25T12:09:08;8.20;99.90
53146;DHT22;39042;53.150;5.898;2023-04-25T12:11:41;8.40;99.90
53146;DHT22;39042;53.150;5.898;2023-04-25T12:14:09;8.60;99.90
53146;DHT22;39042;53.150;5.898;2023-04-25T12:16:44;8.70;99.90
53146;DHT22;39042;53.150;5.898;2023-04-25T12:19:13;8.70;99.90
53146;DHT22;39042;53.150;5.898;2023-04-25T12:21:39;8.60;99.90
53146;DHT22;39042;53.150;5.898;2023-04-25T12:24:15;8.50;99.90
53146;DHT22;39042;53.150;5.898;2023-04-25T12:26:51;8.40;99.90
53146;DHT22;39042;53.150;5.898;2023-04-25T12:29:19;8.50;99.90
53146;DHT22;39042;53.150;5.898;2023-04-25T12:31:45;8.70;99.90
53146;DHT22;39042;53.150;5.898;2023-04-25T12:34:12;8.90;99.90
53146;DHT22;39042;53.150;5.898;2023-04-25T12:36:38;9.00;99.90
53146;DHT22;39042;53.150;5.898;2023-04-25T12:39:04;9.00;99.90
53146;DHT22;39042;53.150;5.898;2023-04-25T12:41:30;9.10;99.90
53146;DHT22;39042;53.150;5.898;2023-04-25T12:43:56;9.20;99.90
53146;DHT22;39042;53.150;5.898;2023-04-25T12:46:22;9.30;99.90
53146;DHT22;39042;53.150;5.898;2023-04-25T12:48:50;9.40;99.90
53146;DHT22;39042;53.150;5.898;2023-04-25T12:51:16;9.40;99.90
53146;DHT22;39042;53.150;5.898;2023-04-25T12:53:42;9.30;99.90
53146;DHT22;39042;53.150;5.898;2023-04-25T12:56:08;9.10;99.90
53146;DHT22;39042;53.150;5.898;2023-04-25T12:58:34;8.80;99.90
53146;DHT22;39042;53.150;5.898;2023-04-25T13:01:00;8.60;99.90
53146;DHT22;39042;53.150;5.898;2023-04-25T13:03:25;8.50;99.90
53146;DHT22;39042;53.150;5.898;2023-04-25T13:05:52;8.60;99.90
53146;DHT22;39042;53.150;5.898;2023-04-25T13:08:18;8.70;99.90
53146;DHT22;39042;53.150;5.898;2023-04-25T13:10:44;8.90;99.90
53146;DHT22;39042;53.150;5.898;2023-04-25T13:13:10;9.00;99.90
53146;DHT22;39042;53.150;5.898;2023-04-25T13:15:36;9.10;99.90
53146;DHT22;39042;53.150;5.898;2023-04-25T13:18:03;9.00;99.90
53146;DHT22;39042;53.150;5.898;2023-04-25T18:36:57;6.40;99.90
53146;DHT22;39042;53.150;5.898;2023-04-25T18:40:33;6.20;99.90
53146;DHT22;39042;53.150;5.898;2023-04-25T18:47:31;6.00;99.90
